createdAt,value
2022-10-30T00:01:05.850Z,89.40
2022-10-30T00:03:32.443Z,89.91
2022-10-30T00:05:59.125Z,89.91
2022-10-30T00:08:25.836Z,90.03
2022-10-30T00:10:53.448Z,89.96
2022-10-30T00:13:21.301Z,90.44
2022-10-30T00:15:52.137Z,90.58
2022-10-30T00:18:20.466Z,90.46
2022-10-30T00:20:48.139Z,91.05
2022-10-30T00:23:17.701Z,91.24
2022-10-30T00:25:44.187Z,91.40
2022-10-30T00:28:10.765Z,91.88
2022-10-30T00:30:42.837Z,91.97
2022-10-30T00:33:21.470Z,91.90
2022-10-30T00:36:01.520Z,92.24
2022-10-30T00:38:49.481Z,92.33
2022-10-30T00:41:52.688Z,92.95
2022-10-30T00:44:46.530Z,93.27
2022-10-30T00:47:43.802Z,93.40
2022-10-30T00:53:12.343Z,94.05
2022-10-30T00:55:58.446Z,93.77
2022-10-30T00:58:39.689Z,93.81
2022-10-30T01:01:11.488Z,94.32
2022-10-30T01:03:39.530Z,94.52
2022-10-30T01:06:08.553Z,94.80
2022-10-30T01:08:35.645Z,94.51
2022-10-30T01:11:04.667Z,94.36
2022-10-30T01:13:33.168Z,94.17
2022-10-30T01:16:21.041Z,94.27
2022-10-30T01:18:50.215Z,93.63
2022-10-30T01:21:58.561Z,93.74
2022-10-30T01:24:32.851Z,93.42
2022-10-30T01:27:35.426Z,93.37
2022-10-30T01:30:25.889Z,93.35
2022-10-30T01:32:57.721Z,93.65
2022-10-30T01:35:34.409Z,93.30
2022-10-30T01:38:14.857Z,93.06
2022-10-30T01:40:44.736Z,93.01
2022-10-30T01:43:11.310Z,92.83
2022-10-30T01:45:46.816Z,93.08
2022-10-30T01:48:26.015Z,92.70
2022-10-30T01:51:20.396Z,92.28
2022-10-30T01:53:52.864Z,92.42
2022-10-30T01:56:46.177Z,92.39
2022-10-30T01:59:31.552Z,92.59
2022-10-30T02:01:59.162Z,92.89
2022-10-30T02:04:26.648Z,92.70
2022-10-30T02:06:53.313Z,92.50
2022-10-30T02:09:20.101Z,92.89
2022-10-30T02:11:48.127Z,92.79
2022-10-30T02:14:21.702Z,92.42
2022-10-30T02:16:51.759Z,92.77
2022-10-30T02:19:19.024Z,93.51
2022-10-30T02:21:45.571Z,93.37
2022-10-30T02:24:12.177Z,93.37
2022-10-30T02:26:38.965Z,93.45
2022-10-30T02:29:05.489Z,94.04
2022-10-30T02:31:32.026Z,94.40
2022-10-30T02:33:58.645Z,94.17
2022-10-30T02:36:25.262Z,93.85
2022-10-30T02:38:51.870Z,94.35
2022-10-30T02:41:18.276Z,94.13
2022-10-30T02:43:44.995Z,94.44
2022-10-30T02:46:11.464Z,94.78
2022-10-30T02:48:37.928Z,95.05
2022-10-30T02:51:05.304Z,95.25
2022-10-30T02:53:34.137Z,95.58
2022-10-30T02:56:09.196Z,95.69
2022-10-30T02:58:35.662Z,95.53
2022-10-30T03:01:15.086Z,95.51
2022-10-30T03:03:42.465Z,95.51
2022-10-30T03:06:10.857Z,95.66
2022-10-30T03:08:37.608Z,95.78
2022-10-30T03:11:15.779Z,95.74
2022-10-30T03:13:43.936Z,96.13
2022-10-30T03:16:18.598Z,96.26
2022-10-30T03:18:46.087Z,96.60
2022-10-30T03:21:16.150Z,97.06
2022-10-30T03:23:43.068Z,97.18
2022-10-30T03:26:10.100Z,97.30
2022-10-30T03:28:36.963Z,97.55
2022-10-30T03:31:15.326Z,97.55
2022-10-30T03:33:42.378Z,97.57
2022-10-30T03:36:10.424Z,97.81
2022-10-30T03:38:37.446Z,97.96
2022-10-30T03:41:04.922Z,97.78
2022-10-30T03:43:31.906Z,97.98
2022-10-30T03:45:58.884Z,97.39
2022-10-30T03:48:27.551Z,97.99
2022-10-30T03:50:55.801Z,98.04
2022-10-30T03:53:23.975Z,97.88
2022-10-30T03:55:51.022Z,97.98
2022-10-30T03:58:17.720Z,97.90
2022-10-30T04:00:44.270Z,97.91
2022-10-30T04:03:10.790Z,98.01
2022-10-30T04:05:37.867Z,98.68
2022-10-30T04:08:07.993Z,98.59
2022-10-30T04:10:35.481Z,99.43
2022-10-30T04:13:07.431Z,99.77
2022-10-30T04:15:34.275Z,100.00
2022-10-30T04:18:01.596Z,100.00
2022-10-30T04:20:29.164Z,100.00
2022-10-30T04:22:58.084Z,100.00
2022-10-30T04:25:24.649Z,100.00
2022-10-30T04:27:53.117Z,99.83
2022-10-30T04:30:25.308Z,100.00
2022-10-30T04:32:55.927Z,100.00
2022-10-30T04:35:24.937Z,100.00
2022-10-30T04:38:06.855Z,100.00
2022-10-30T04:40:35.642Z,100.00
2022-10-30T04:43:05.427Z,100.00
2022-10-30T04:45:32.557Z,100.00
2022-10-30T04:48:14.598Z,100.00
2022-10-30T04:50:41.199Z,100.00
2022-10-30T04:57:43.585Z,100.00
2022-10-30T05:00:11.323Z,100.00
2022-10-30T05:02:37.958Z,100.00
2022-10-30T05:05:04.914Z,100.00
2022-10-30T05:07:31.788Z,100.00
2022-10-30T05:09:58.395Z,100.00
2022-10-30T05:12:24.918Z,100.00
2022-10-30T05:14:51.456Z,100.00
2022-10-30T05:17:18.176Z,100.00
2022-10-30T05:19:45.328Z,100.00
2022-10-30T05:22:12.953Z,100.00
2022-10-30T05:24:39.784Z,100.00
2022-10-30T05:27:06.396Z,100.00
2022-10-30T05:29:32.834Z,100.00
2022-10-30T05:31:59.378Z,100.00
2022-10-30T05:34:26.004Z,100.00
2022-10-30T05:36:52.710Z,100.00
2022-10-30T05:39:19.454Z,100.00
2022-10-30T05:41:46.093Z,100.00
2022-10-30T05:44:12.601Z,100.00
2022-10-30T05:46:39.175Z,100.00
2022-10-30T05:49:06.780Z,100.00
2022-10-30T05:51:37.928Z,100.00
2022-10-30T05:54:07.037Z,100.00
2022-10-30T05:56:33.802Z,100.00
2022-10-30T05:59:00.410Z,100.00
2022-10-30T06:01:27.074Z,100.00
2022-10-30T06:03:53.607Z,100.00
2022-10-30T06:06:22.356Z,100.00
2022-10-30T06:08:48.784Z,100.00
2022-10-30T06:11:15.630Z,100.00
2022-10-30T06:13:42.184Z,100.00
2022-10-30T06:16:08.735Z,100.00
2022-10-30T06:18:35.231Z,100.00
2022-10-30T06:21:01.872Z,100.00
2022-10-30T06:23:28.478Z,100.00
2022-10-30T06:25:55.018Z,100.00
2022-10-30T06:28:21.640Z,100.00
2022-10-30T06:30:54.520Z,100.00
2022-10-30T06:33:35.874Z,100.00
2022-10-30T06:36:09.513Z,100.00
2022-10-30T06:38:36.096Z,100.00
2022-10-30T06:41:02.794Z,100.00
2022-10-30T06:43:29.707Z,100.00
2022-10-30T06:45:58.226Z,100.00
2022-10-30T06:48:24.884Z,100.00
2022-10-30T06:50:58.907Z,100.00
2022-10-30T06:53:26.584Z,100.00
2022-10-30T06:55:59.051Z,100.00
2022-10-30T06:58:26.248Z,100.00
2022-10-30T07:00:53.461Z,100.00
2022-10-30T07:03:20.084Z,100.00
2022-10-30T07:05:47.124Z,100.00
2022-10-30T07:08:16.279Z,100.00
2022-10-30T07:10:42.785Z,100.00
2022-10-30T07:13:09.739Z,100.00
2022-10-30T07:15:36.408Z,100.00
2022-10-30T07:18:04.536Z,100.00
2022-10-30T07:20:32.208Z,100.00
2022-10-30T07:22:59.280Z,100.00
2022-10-30T07:25:26.124Z,100.00
2022-10-30T07:27:54.025Z,100.00
2022-10-30T07:30:23.791Z,100.00
2022-10-30T07:33:05.033Z,100.00
2022-10-30T07:35:33.501Z,100.00
2022-10-30T07:38:04.986Z,100.00
2022-10-30T07:40:32.188Z,100.00
2022-10-30T07:43:01.416Z,100.00
2022-10-30T07:45:28.489Z,100.00
2022-10-30T07:47:55.947Z,100.00
2022-10-30T07:50:32.339Z,100.00
2022-10-30T07:52:58.819Z,100.00
2022-10-30T07:55:25.338Z,100.00
2022-10-30T07:57:51.808Z,100.00
2022-10-30T08:00:18.747Z,100.00
2022-10-30T08:02:49.250Z,100.00
2022-10-30T08:05:16.137Z,100.00
2022-10-30T08:07:52.665Z,100.00
2022-10-30T08:10:19.069Z,100.00
2022-10-30T08:12:47.624Z,100.00
2022-10-30T08:15:14.740Z,99.95
2022-10-30T08:17:43.885Z,99.92
2022-10-30T08:20:15.147Z,100.00
2022-10-30T08:22:53.995Z,99.87
2022-10-30T08:25:22.729Z,100.00
2022-10-30T08:28:01.172Z,100.00
2022-10-30T08:30:31.194Z,100.00
2022-10-30T08:33:00.036Z,100.00
2022-10-30T08:35:27.243Z,99.72
2022-10-30T08:38:02.894Z,99.02
2022-10-30T08:40:29.879Z,99.24
2022-10-30T08:42:57.898Z,99.23
2022-10-30T08:45:29.785Z,99.65
2022-10-30T08:48:00.278Z,99.51
2022-10-30T08:50:27.924Z,99.52
2022-10-30T08:52:54.876Z,99.36
2022-10-30T08:55:21.866Z,99.75
2022-10-30T08:57:48.326Z,99.39
2022-10-30T09:00:15.785Z,99.33
2022-10-30T09:02:42.492Z,99.27
2022-10-30T09:05:09.587Z,98.46
2022-10-30T09:07:36.590Z,98.20
2022-10-30T09:10:04.070Z,98.02
2022-10-30T09:12:30.514Z,98.23
2022-10-30T09:14:57.121Z,98.62
2022-10-30T09:17:23.923Z,98.04
2022-10-30T09:19:50.564Z,97.94
2022-10-30T09:22:17.169Z,97.47
2022-10-30T09:24:43.663Z,97.48
2022-10-30T09:27:10.226Z,96.95
2022-10-30T09:29:36.950Z,97.48
2022-10-30T09:32:08.543Z,97.07
2022-10-30T09:34:35.001Z,96.99
2022-10-30T09:37:01.775Z,95.73
2022-10-30T09:39:30.181Z,94.62
2022-10-30T09:41:59.675Z,94.33
2022-10-30T09:44:34.393Z,94.67
2022-10-30T09:47:29.081Z,94.53
2022-10-30T09:50:26.042Z,94.35
2022-10-30T09:53:03.592Z,94.39
2022-10-30T09:55:40.387Z,94.14
2022-10-30T09:58:20.244Z,93.41
2022-10-30T10:01:07.358Z,93.65
2022-10-30T10:06:20.422Z,92.97
2022-10-30T10:09:17.536Z,92.62
2022-10-30T10:11:49.309Z,91.93
2022-10-30T10:14:28.254Z,92.36
2022-10-30T10:17:01.289Z,92.41
2022-10-30T10:19:30.521Z,93.03
2022-10-30T10:22:06.819Z,92.86
2022-10-30T10:24:39.957Z,92.46
2022-10-30T10:27:22.088Z,91.44
2022-10-30T10:29:51.603Z,91.81
2022-10-30T10:32:18.131Z,92.07
2022-10-30T10:34:53.237Z,91.18
2022-10-30T10:37:38.129Z,91.46
2022-10-30T10:40:22.802Z,91.69
2022-10-30T10:43:13.027Z,91.50
2022-10-30T10:46:04.089Z,91.43
2022-10-30T10:48:58.080Z,89.78
2022-10-30T10:51:32.282Z,89.58
2022-10-30T10:54:02.829Z,89.62
2022-10-30T10:56:36.245Z,89.55
2022-10-30T10:59:26.914Z,89.37
2022-10-30T11:02:02.991Z,89.10
2022-10-30T11:04:46.742Z,88.21
2022-10-30T11:07:19.393Z,88.59
2022-10-30T11:09:53.247Z,88.77
2022-10-30T11:12:25.447Z,89.11
2022-10-30T11:14:52.059Z,89.41
2022-10-30T11:17:44.870Z,88.56
2022-10-30T11:20:27.543Z,87.53
2022-10-30T11:22:53.965Z,87.68
2022-10-30T11:25:26.837Z,87.07
2022-10-30T11:27:59.900Z,87.08
2022-10-30T11:30:28.854Z,85.82
2022-10-30T11:32:57.245Z,85.05
2022-10-30T11:35:25.196Z,85.78
2022-10-30T11:38:12.296Z,86.08
2022-10-30T11:40:41.039Z,86.51
2022-10-30T11:43:11.887Z,86.50
2022-10-30T11:45:41.447Z,86.32
2022-10-30T11:48:19.796Z,86.38
2022-10-30T11:50:49.595Z,86.55
2022-10-30T11:53:31.262Z,85.27
2022-10-30T11:55:58.814Z,85.66
2022-10-30T11:58:36.258Z,86.57
2022-10-30T12:01:04.393Z,86.33
2022-10-30T12:03:37.407Z,86.06
2022-10-30T12:06:20.672Z,86.27
2022-10-30T12:09:13.896Z,85.50
2022-10-30T12:11:44.699Z,85.36
2022-10-30T12:14:21.046Z,86.28
2022-10-30T12:16:50.691Z,88.08
2022-10-30T12:19:20.078Z,86.68
2022-10-30T12:21:54.739Z,85.92
2022-10-30T12:24:36.847Z,85.47
2022-10-30T12:27:18.101Z,88.21
2022-10-30T12:30:08.278Z,89.23
2022-10-30T12:32:46.497Z,88.48
2022-10-30T12:35:19.131Z,88.70
2022-10-30T12:37:49.221Z,85.09
2022-10-30T12:40:24.926Z,85.52
2022-10-30T12:43:05.310Z,83.55
2022-10-30T12:45:39.093Z,83.64
2022-10-30T12:48:23.506Z,83.45
2022-10-30T12:51:05.749Z,84.33
2022-10-30T12:53:40.788Z,84.27
2022-10-30T12:56:15.132Z,84.77
2022-10-30T12:58:57.190Z,84.30
2022-10-30T13:01:42.507Z,85.26
2022-10-30T13:04:17.685Z,85.88
2022-10-30T13:07:14.901Z,85.15
2022-10-30T13:09:51.214Z,86.36
2022-10-30T13:12:35.332Z,85.21
2022-10-30T13:15:18.334Z,86.35
2022-10-30T13:17:44.832Z,87.90
2022-10-30T13:20:14.328Z,87.57
2022-10-30T13:22:53.957Z,86.68
2022-10-30T13:25:28.077Z,87.08
2022-10-30T13:28:11.881Z,86.88
2022-10-30T13:30:42.501Z,86.56
2022-10-30T13:33:19.794Z,86.51
2022-10-30T13:35:59.446Z,86.67
2022-10-30T13:39:01.737Z,87.33
2022-10-30T13:41:47.923Z,87.65
2022-10-30T13:44:41.466Z,89.12
2022-10-30T13:47:42.084Z,87.95
2022-10-30T13:50:08.665Z,88.27
2022-10-30T13:52:38.449Z,87.79
2022-10-30T13:55:07.991Z,88.23
2022-10-30T13:57:42.574Z,87.56
2022-10-30T14:00:18.842Z,88.93
2022-10-30T14:03:11.760Z,88.02
2022-10-30T14:05:51.710Z,86.80
2022-10-30T14:08:25.179Z,88.69
2022-10-30T14:11:00.611Z,88.42
2022-10-30T14:13:55.261Z,89.67
2022-10-30T14:16:32.468Z,90.52
2022-10-30T14:19:04.401Z,90.67
2022-10-30T14:21:34.440Z,90.87
2022-10-30T14:24:22.828Z,91.23
2022-10-30T14:27:11.214Z,90.82
2022-10-30T14:29:42.390Z,90.02
2022-10-30T14:32:14.579Z,89.99
2022-10-30T14:35:24.427Z,88.60
2022-10-30T14:37:50.841Z,88.51
2022-10-30T14:40:51.457Z,89.36
2022-10-30T14:43:31.141Z,89.51
2022-10-30T14:46:01.581Z,90.95
2022-10-30T14:49:02.814Z,89.21
2022-10-30T14:51:37.993Z,88.66
2022-10-30T14:54:22.017Z,90.02
2022-10-30T14:56:50.864Z,90.38
2022-10-30T14:59:17.427Z,90.74
2022-10-30T15:02:16.110Z,90.62
2022-10-30T15:05:06.915Z,90.44
2022-10-30T15:08:08.170Z,90.48
2022-10-30T15:10:36.455Z,89.74
2022-10-30T15:13:18.074Z,91.12
2022-10-30T15:15:46.394Z,90.62
2022-10-30T15:18:19.261Z,90.97
2022-10-30T15:20:52.127Z,90.88
2022-10-30T15:23:32.241Z,91.57
2022-10-30T15:26:08.966Z,91.59
2022-10-30T15:28:36.814Z,91.96
2022-10-30T15:31:18.282Z,92.18
2022-10-30T15:33:45.040Z,92.43
2022-10-30T15:36:23.134Z,92.62
2022-10-30T15:39:12.804Z,93.19
2022-10-30T15:41:56.909Z,92.99
2022-10-30T15:44:30.570Z,93.36
2022-10-30T15:47:00.858Z,93.26
2022-10-30T15:49:31.576Z,93.78
2022-10-30T15:51:59.630Z,91.44
2022-10-30T15:54:28.115Z,91.13
2022-10-30T15:57:31.390Z,91.19
2022-10-30T15:59:51.572Z,90.62
2022-10-30T16:02:23.640Z,90.95
2022-10-30T16:04:50.260Z,90.79
2022-10-30T16:07:20.341Z,90.68
2022-10-30T16:10:01.629Z,91.10
2022-10-30T16:12:30.865Z,90.31
2022-10-30T16:15:00.272Z,91.03
2022-10-30T16:17:27.278Z,91.23
2022-10-30T16:20:01.913Z,91.49
2022-10-30T16:22:33.751Z,92.04
2022-10-30T16:25:00.604Z,92.34
2022-10-30T16:27:27.554Z,92.24
2022-10-30T16:29:58.887Z,92.64
2022-10-30T16:32:29.116Z,92.76
2022-10-30T16:34:57.863Z,92.85
2022-10-30T16:37:28.113Z,92.98
2022-10-30T16:39:56.328Z,92.85
2022-10-30T16:42:26.569Z,91.75
2022-10-30T16:45:25.632Z,91.60
2022-10-30T16:50:44.247Z,92.01
2022-10-30T16:53:23.946Z,92.17
2022-10-30T16:55:51.722Z,92.88
2022-10-30T16:58:20.073Z,93.62
2022-10-30T17:00:52.538Z,93.76
2022-10-30T17:03:26.521Z,93.86
2022-10-30T17:05:59.125Z,93.74
2022-10-30T17:08:31.907Z,94.14
2022-10-30T17:11:03.875Z,94.05
2022-10-30T17:13:43.879Z,94.72
2022-10-30T17:16:20.364Z,94.96
2022-10-30T17:18:51.865Z,95.16
2022-10-30T17:21:42.145Z,94.93
2022-10-30T17:24:37.627Z,95.37
2022-10-30T17:27:06.865Z,95.37
2022-10-30T17:29:36.299Z,95.43
2022-10-30T17:32:22.342Z,95.71
2022-10-30T17:35:00.286Z,96.02
2022-10-30T17:37:27.764Z,96.19
2022-10-30T17:39:54.353Z,96.33
2022-10-30T17:42:20.853Z,96.41
2022-10-30T17:44:47.793Z,96.40
2022-10-30T17:47:17.291Z,96.41
2022-10-30T17:49:44.762Z,96.33
2022-10-30T17:52:21.163Z,96.87
2022-10-30T17:55:06.782Z,96.90
2022-10-30T17:57:33.215Z,97.56
2022-10-30T17:59:59.781Z,96.91
2022-10-30T18:02:26.294Z,97.22
2022-10-30T18:04:54.877Z,97.44
2022-10-30T18:07:21.351Z,97.60
2022-10-30T18:09:47.952Z,97.86
2022-10-30T18:12:16.486Z,98.44
2022-10-30T18:14:44.258Z,99.00
2022-10-30T18:17:11.309Z,98.95
2022-10-30T18:19:37.907Z,99.05
2022-10-30T18:22:04.328Z,99.40
2022-10-30T18:24:30.930Z,99.38
2022-10-30T18:26:58.466Z,98.57
2022-10-30T18:29:25.102Z,98.34
2022-10-30T18:31:51.639Z,98.26
2022-10-30T18:34:21.419Z,98.15
2022-10-30T18:36:48.719Z,98.32
2022-10-30T18:39:15.194Z,98.94
2022-10-30T18:41:43.910Z,98.44
2022-10-30T18:44:15.520Z,98.06
2022-10-30T18:46:42.324Z,97.21
2022-10-30T18:49:08.824Z,96.62
2022-10-30T18:51:35.485Z,96.47
2022-10-30T18:54:02.061Z,96.37
2022-10-30T18:56:32.429Z,96.51
2022-10-30T18:59:02.351Z,97.46
2022-10-30T19:01:32.195Z,97.15
2022-10-30T19:04:03.809Z,97.94
2022-10-30T19:06:31.084Z,98.02
2022-10-30T19:08:57.565Z,97.92
2022-10-30T19:11:25.281Z,98.04
2022-10-30T19:13:53.056Z,97.88
2022-10-30T19:16:20.427Z,97.96
2022-10-30T19:18:47.508Z,97.19
2022-10-30T19:21:22.552Z,96.70
2022-10-30T19:23:49.634Z,97.06
2022-10-30T19:26:17.513Z,97.05
2022-10-30T19:28:44.950Z,97.38
2022-10-30T19:31:14.603Z,96.90
2022-10-30T19:33:41.961Z,96.64
2022-10-30T19:36:26.936Z,97.56
2022-10-30T19:38:53.951Z,97.96
2022-10-30T19:41:20.504Z,97.90
2022-10-30T19:43:46.984Z,98.00
2022-10-30T19:46:15.100Z,97.72
2022-10-30T19:48:58.545Z,97.36
2022-10-30T19:51:27.200Z,96.94
2022-10-30T19:53:53.947Z,96.82
2022-10-30T19:56:21.381Z,96.46
2022-10-30T19:58:48.154Z,96.37
2022-10-30T20:01:15.018Z,95.97
2022-10-30T20:03:41.637Z,95.48
2022-10-30T20:06:11.882Z,95.26
2022-10-30T20:08:41.198Z,95.11
2022-10-30T20:11:10.475Z,95.37
2022-10-30T20:13:37.366Z,95.77
2022-10-30T20:16:05.652Z,95.06
2022-10-30T20:18:36.106Z,93.64
2022-10-30T20:21:10.429Z,92.81
2022-10-30T20:23:37.344Z,93.17
2022-10-30T20:26:24.384Z,93.43
2022-10-30T20:28:51.963Z,93.94
2022-10-30T20:31:19.016Z,93.54
2022-10-30T20:33:45.580Z,93.49
2022-10-30T20:36:13.056Z,94.22
2022-10-30T20:38:40.233Z,94.34
2022-10-30T20:41:07.493Z,93.91
2022-10-30T20:43:37.092Z,93.88
2022-10-30T20:46:06.337Z,93.54
2022-10-30T20:48:34.314Z,93.70
2022-10-30T20:51:01.682Z,94.11
2022-10-30T20:53:29.621Z,94.62
2022-10-30T20:55:56.266Z,94.21
2022-10-30T20:58:23.053Z,94.64
2022-10-30T21:00:51.250Z,95.04
2022-10-30T21:03:19.720Z,95.21
2022-10-30T21:05:46.406Z,95.29
2022-10-30T21:08:14.260Z,95.81
2022-10-30T21:10:41.605Z,96.05
2022-10-30T21:13:09.803Z,96.13
2022-10-30T21:15:41.541Z,96.27
2022-10-30T21:18:09.375Z,96.24
2022-10-30T21:20:37.156Z,96.34
2022-10-30T21:23:03.952Z,96.18
2022-10-30T21:25:32.297Z,96.22
2022-10-30T21:27:58.998Z,96.27
2022-10-30T21:30:25.530Z,95.98
2022-10-30T21:32:52.080Z,96.17
2022-10-30T21:35:18.760Z,96.20
2022-10-30T21:37:45.286Z,96.14
2022-10-30T21:40:12.439Z,96.11
2022-10-30T21:42:38.999Z,95.91
2022-10-30T21:45:06.422Z,96.08
2022-10-30T21:47:33.045Z,96.16
2022-10-30T21:49:59.534Z,96.40
2022-10-30T21:52:26.090Z,96.70
2022-10-30T21:54:52.576Z,96.70
2022-10-30T21:57:18.993Z,96.79
2022-10-30T21:59:45.455Z,96.98
2022-10-30T22:02:15.419Z,97.25
2022-10-30T22:04:42.196Z,97.39
2022-10-30T22:07:08.719Z,97.64
2022-10-30T22:09:35.264Z,98.04
2022-10-30T22:12:01.692Z,97.55
2022-10-30T22:14:29.290Z,97.75
2022-10-30T22:16:56.170Z,98.20
2022-10-30T22:19:22.675Z,98.13
2022-10-30T22:21:49.108Z,97.85
2022-10-30T22:24:17.174Z,97.43
2022-10-30T22:26:43.621Z,97.44
2022-10-30T22:29:09.980Z,97.43
2022-10-30T22:31:36.537Z,97.35
2022-10-30T22:34:03.054Z,97.74
2022-10-30T22:36:31.971Z,97.64
2022-10-30T22:39:01.514Z,97.83
2022-10-30T22:41:32.887Z,98.12
2022-10-30T22:44:04.064Z,98.38
2022-10-30T22:46:31.060Z,98.65
2022-10-30T22:48:58.063Z,98.32
2022-10-30T22:51:25.713Z,98.29
2022-10-30T22:53:58.339Z,98.14
2022-10-30T22:56:30.017Z,98.58
2022-10-30T22:58:57.252Z,98.05
2022-10-30T23:01:26.791Z,98.35
2022-10-30T23:03:56.150Z,98.12
2022-10-30T23:06:23.026Z,97.92
2022-10-30T23:08:52.191Z,98.00
2022-10-30T23:11:19.104Z,97.75
2022-10-30T23:13:46.175Z,96.82
2022-10-30T23:16:18.883Z,97.17
2022-10-30T23:18:46.040Z,96.78
2022-10-30T23:21:15.464Z,96.73
2022-10-30T23:23:43.518Z,96.88
2022-10-30T23:26:11.378Z,96.92
2022-10-30T23:28:38.037Z,96.76
2022-10-30T23:31:06.625Z,96.44
2022-10-30T23:33:33.753Z,96.10
2022-10-30T23:36:02.126Z,96.46
2022-10-30T23:38:28.575Z,96.72
2022-10-30T23:40:55.587Z,96.63
2022-10-30T23:43:22.126Z,96.83
2022-10-30T23:45:48.620Z,97.42
2022-10-30T23:48:15.223Z,96.79
2022-10-30T23:50:41.862Z,96.93
2022-10-30T23:53:08.273Z,97.00
2022-10-30T23:55:34.699Z,97.14
2022-10-30T23:58:01.579Z,97.64
